Aérodrome :
LOGIN :

S'inscrire | Disclaimer

   EN    FR    IT 

 










Légende :    VFR   VFR Marginal   IFR   IFR Intensif   IFR Très Intensif
Visi : 
Plafond : 
>= 8 km
>= 3000ft
5 à 8 km
1000 à 3000 ft
1500m à 5 km
500 à 1000 ft
800 à 1500m
200 à 500 ft
< 800m
< 200 ft
Symboles :   Orages  Brouillard  Fortes neiges  Fortes précipitations  Vent > 20 kt
SIGMETs :   Divers  Orages  Givrage  Turbulence  Onde Orograph.  Cendres Volcan.







- Altitude de l'aérodrome : 600 ft
- Code IATA : VIE


LOWW - Vienna Schwechat

DERNIER METAR :
  • 202050Z 17007KT CAVOK 24/17 Q1016 BECMG FM2200 30012KT

METARs EXPIRÉS :
  • 202020Z 15006KT CAVOK 25/17 Q1017 BECMG FM2200 30012KT
  • 201950Z 15008KT CAVOK 25/17 Q1017 NOSIG
  • 201920Z 15006KT CAVOK 26/17 Q1017 NOSIG
  • 201850Z 16009KT CAVOK 27/17 Q1017 NOSIG
  • 201820Z 15009KT CAVOK 28/17 Q1017 NOSIG

TAF TAF LOWW
Valide du 20 à 21h jusqu'au 22 à 03h UTC


202015Z 2021/2203 16006KT 9999 FEW040 SCT120 TX23/2021Z TN16/2203Z
BECMG 2021/2023 30013KT
TEMPO 2021/2104 32025G35KT SCT040 FEW040CB
PROB30
TEMPO 2023/2103 32030G45KT 8000 TSRA BKN025 SCT050CB
TEMPO 2104/2109 32015G25KT BKN040 FEW050TCU
TEMPO 2109/2118 35015KT FEW050
FM211800 35007KT CAVOK
Pas de NOTAMs connus pour ce terrain.



MET'MAP, la Météo Aéronautique d'un coup d'oeil ! - Copyright ORBIFLY Décembre 2007 - Disclaimer

ORBIFLY MET'MAP TEAM :

Programmation & Développement : Alexandra Zaïnal
Conception & Développement : Baudouin d'Aumeries
Co-Programmation & Développement : Marc-Olivier Méhu
Soutien technique & logistique : Manuel Goepfert

Contact : metmap@orbifly.com




SOURCES & CREDITS :

   NOAA